sensor_id;sensor_type;location;lat;lon;timestamp;P1;durP1;ratioP1;P2;durP2;ratioP2
40595;SDS011;26304;48.794;9.820;2022-09-24T00:04:50;4.85;;;4.45;;
40595;SDS011;26304;48.794;9.820;2022-09-24T00:10:35;4.72;;;4.35;;
40595;SDS011;26304;48.794;9.820;2022-09-24T00:16:21;4.65;;;4.35;;
40595;SDS011;26304;48.794;9.820;2022-09-24T00:22:06;4.22;;;3.92;;
40595;SDS011;26304;48.794;9.820;2022-09-24T00:27:49;4.25;;;3.95;;
40595;SDS011;26304;48.794;9.820;2022-09-24T00:33:31;4.50;;;4.10;;
40595;SDS011;26304;48.794;9.820;2022-09-24T00:39:16;3.75;;;3.50;;
40595;SDS011;26304;48.794;9.820;2022-09-24T00:44:58;4.30;;;4.05;;
40595;SDS011;26304;48.794;9.820;2022-09-24T00:50:44;3.83;;;3.53;;
40595;SDS011;26304;48.794;9.820;2022-09-24T00:56:28;3.85;;;3.55;;
40595;SDS011;26304;48.794;9.820;2022-09-24T01:02:12;3.72;;;3.42;;
40595;SDS011;26304;48.794;9.820;2022-09-24T01:07:54;4.00;;;3.60;;
40595;SDS011;26304;48.794;9.820;2022-09-24T01:13:56;4.18;;;3.80;;
40595;SDS011;26304;48.794;9.820;2022-09-24T01:20:23;4.05;;;3.70;;
40595;SDS011;26304;48.794;9.820;2022-09-24T01:26:24;4.30;;;4.00;;
40595;SDS011;26304;48.794;9.820;2022-09-24T01:32:22;5.95;;;4.20;;
40595;SDS011;26304;48.794;9.820;2022-09-24T01:38:10;4.15;;;3.85;;
40595;SDS011;26304;48.794;9.820;2022-09-24T01:43:55;3.38;;;3.15;;
40595;SDS011;26304;48.794;9.820;2022-09-24T01:49:42;4.38;;;4.07;;
40595;SDS011;26304;48.794;9.820;2022-09-24T01:55:25;4.72;;;4.38;;
40595;SDS011;26304;48.794;9.820;2022-09-24T02:01:11;4.90;;;4.60;;
40595;SDS011;26304;48.794;9.820;2022-09-24T02:07:00;5.30;;;4.90;;
40595;SDS011;26304;48.794;9.820;2022-09-24T02:12:46;5.82;;;5.35;;
40595;SDS011;26304;48.794;9.820;2022-09-24T02:18:32;4.95;;;4.55;;
40595;SDS011;26304;48.794;9.820;2022-09-24T02:24:19;5.43;;;4.93;;
40595;SDS011;26304;48.794;9.820;2022-09-24T02:30:05;5.18;;;4.75;;
40595;SDS011;26304;48.794;9.820;2022-09-24T02:35:49;5.38;;;4.90;;
40595;SDS011;26304;48.794;9.820;2022-09-24T02:41:34;5.22;;;4.82;;
40595;SDS011;26304;48.794;9.820;2022-09-24T02:47:17;4.82;;;4.38;;
40595;SDS011;26304;48.794;9.820;2022-09-24T02:53:00;5.18;;;4.78;;
40595;SDS011;26304;48.794;9.820;2022-09-24T02:58:44;4.78;;;4.38;;
40595;SDS011;26304;48.794;9.820;2022-09-24T03:04:26;4.90;;;4.50;;
40595;SDS011;26304;48.794;9.820;2022-09-24T03:10:10;5.05;;;4.65;;
40595;SDS011;26304;48.794;9.820;2022-09-24T03:15:54;5.13;;;4.65;;
40595;SDS011;26304;48.794;9.820;2022-09-24T03:21:36;5.07;;;4.68;;
40595;SDS011;26304;48.794;9.820;2022-09-24T03:27:19;4.57;;;4.18;;
40595;SDS011;26304;48.794;9.820;2022-09-24T03:33:02;4.63;;;4.20;;
40595;SDS011;26304;48.794;9.820;2022-09-24T03:38:45;4.60;;;4.20;;
40595;SDS011;26304;48.794;9.820;2022-09-24T03:44:29;4.03;;;3.72;;
40595;SDS011;26304;48.794;9.820;2022-09-24T03:50:13;4.30;;;3.90;;
40595;SDS011;26304;48.794;9.820;2022-09-24T03:55:55;4.18;;;3.88;;
40595;SDS011;26304;48.794;9.820;2022-09-24T04:01:39;4.43;;;4.00;;
40595;SDS011;26304;48.794;9.820;2022-09-24T04:07:23;4.18;;;3.88;;
40595;SDS011;26304;48.794;9.820;2022-09-24T04:13:05;3.72;;;3.53;;
40595;SDS011;26304;48.794;9.820;2022-09-24T04:18:49;3.55;;;3.35;;
40595;SDS011;26304;48.794;9.820;2022-09-24T04:24:32;4.20;;;3.90;;
40595;SDS011;26304;48.794;9.820;2022-09-24T04:30:15;4.07;;;3.78;;
40595;SDS011;26304;48.794;9.820;2022-09-24T04:35:57;3.95;;;3.65;;
40595;SDS011;26304;48.794;9.820;2022-09-24T04:41:41;4.15;;;3.85;;
40595;SDS011;26304;48.794;9.820;2022-09-24T04:47:23;4.40;;;4.07;;
40595;SDS011;26304;48.794;9.820;2022-09-24T04:53:06;4.13;;;3.63;;
40595;SDS011;26304;48.794;9.820;2022-09-24T04:58:50;4.03;;;3.70;;
40595;SDS011;26304;48.794;9.820;2022-09-24T05:04:33;3.88;;;3.67;;
40595;SDS011;26304;48.794;9.820;2022-09-24T05:10:15;3.60;;;3.38;;
40595;SDS011;26304;48.794;9.820;2022-09-24T05:15:59;3.45;;;3.15;;
40595;SDS011;26304;48.794;9.820;2022-09-24T05:21:42;4.07;;;3.78;;
40595;SDS011;26304;48.794;9.820;2022-09-24T05:27:24;4.10;;;3.80;;
40595;SDS011;26304;48.794;9.820;2022-09-24T05:33:08;4.05;;;3.78;;
40595;SDS011;26304;48.794;9.820;2022-09-24T05:38:51;4.32;;;4.00;;
40595;SDS011;26304;48.794;9.820;2022-09-24T05:44:33;4.70;;;4.25;;
40595;SDS011;26304;48.794;9.820;2022-09-24T05:50:19;4.50;;;4.18;;
40595;SDS011;26304;48.794;9.820;2022-09-24T05:56:01;4.68;;;4.30;;
40595;SDS011;26304;48.794;9.820;2022-09-24T06:01:43;4.45;;;4.05;;
40595;SDS011;26304;48.794;9.820;2022-09-24T06:07:27;5.68;;;5.18;;
40595;SDS011;26304;48.794;9.820;2022-09-24T06:13:09;7.03;;;6.38;;
40595;SDS011;26304;48.794;9.820;2022-09-24T06:18:54;6.72;;;6.13;;
40595;SDS011;26304;48.794;9.820;2022-09-24T06:24:37;7.32;;;6.72;;
40595;SDS011;26304;48.794;9.820;2022-09-24T06:30:20;6.75;;;6.25;;
40595;SDS011;26304;48.794;9.820;2022-09-24T06:36:03;6.90;;;6.30;;
40595;SDS011;26304;48.794;9.820;2022-09-24T06:41:47;10.57;;;5.95;;
40595;SDS011;26304;48.794;9.820;2022-09-24T06:47:31;5.22;;;4.82;;
40595;SDS011;26304;48.794;9.820;2022-09-24T06:53:13;5.50;;;5.00;;
40595;SDS011;26304;48.794;9.820;2022-09-24T06:58:57;4.55;;;4.25;;
40595;SDS011;26304;48.794;9.820;2022-09-24T07:04:39;5.05;;;4.63;;
40595;SDS011;26304;48.794;9.820;2022-09-24T07:10:22;5.18;;;4.68;;
40595;SDS011;26304;48.794;9.820;2022-09-24T07:16:07;5.50;;;4.65;;
40595;SDS011;26304;48.794;9.820;2022-09-24T07:21:49;4.75;;;4.43;;
40595;SDS011;26304;48.794;9.820;2022-09-24T07:27:32;5.50;;;5.00;;
40595;SDS011;26304;48.794;9.820;2022-09-24T07:33:15;4.03;;;3.72;;
40595;SDS011;26304;48.794;9.820;2022-09-24T07:38:58;5.65;;;4.97;;
40595;SDS011;26304;48.794;9.820;2022-09-24T07:44:41;5.07;;;4.68;;
40595;SDS011;26304;48.794;9.820;2022-09-24T07:50:25;5.05;;;4.15;;
40595;SDS011;26304;48.794;9.820;2022-09-24T07:56:09;5.70;;;5.10;;
40595;SDS011;26304;48.794;9.820;2022-09-24T08:01:51;6.40;;;5.15;;
40595;SDS011;26304;48.794;9.820;2022-09-24T08:07:35;5.70;;;5.18;;
40595;SDS011;26304;48.794;9.820;2022-09-24T08:13:18;6.10;;;5.60;;
40595;SDS011;26304;48.794;9.820;2022-09-24T08:19:00;5.43;;;4.93;;
40595;SDS011;26304;48.794;9.820;2022-09-24T08:24:44;5.15;;;4.65;;
40595;SDS011;26304;48.794;9.820;2022-09-24T08:30:26;5.60;;;4.63;;
40595;SDS011;26304;48.794;9.820;2022-09-24T08:36:09;5.35;;;4.85;;
40595;SDS011;26304;48.794;9.820;2022-09-24T08:41:54;5.03;;;4.63;;
40595;SDS011;26304;48.794;9.820;2022-09-24T08:47:41;4.93;;;4.45;;
40595;SDS011;26304;48.794;9.820;2022-09-24T08:53:28;4.72;;;4.32;;
40595;SDS011;26304;48.794;9.820;2022-09-24T08:59:23;7.53;;;4.88;;
40595;SDS011;26304;48.794;9.820;2022-09-24T09:05:13;4.40;;;4.00;;
40595;SDS011;26304;48.794;9.820;2022-09-24T09:11:01;4.55;;;4.25;;
40595;SDS011;26304;48.794;9.820;2022-09-24T09:16:48;4.75;;;4.30;;
40595;SDS011;26304;48.794;9.820;2022-09-24T09:22:35;4.95;;;4.45;;
40595;SDS011;26304;48.794;9.820;2022-09-24T09:28:24;4.78;;;4.47;;
40595;SDS011;26304;48.794;9.820;2022-09-24T09:34:16;4.70;;;4.30;;
40595;SDS011;26304;48.794;9.820;2022-09-24T09:40:14;6.82;;;4.82;;
40595;SDS011;26304;48.794;9.820;2022-09-24T09:46:09;4.55;;;4.07;;
40595;SDS011;26304;48.794;9.820;2022-09-24T09:51:58;4.03;;;3.72;;
40595;SDS011;26304;48.794;9.820;2022-09-24T09:57:45;5.00;;;4.50;;
40595;SDS011;26304;48.794;9.820;2022-09-24T10:03:29;4.70;;;4.30;;
40595;SDS011;26304;48.794;9.820;2022-09-24T10:09:14;4.35;;;4.03;;
40595;SDS011;26304;48.794;9.820;2022-09-24T10:15:00;3.92;;;3.67;;
40595;SDS011;26304;48.794;9.820;2022-09-24T10:20:45;4.13;;;3.72;;
40595;SDS011;26304;48.794;9.820;2022-09-24T10:26:34;3.80;;;3.50;;
40595;SDS011;26304;48.794;9.820;2022-09-24T10:32:18;3.95;;;3.50;;
40595;SDS011;26304;48.794;9.820;2022-09-24T10:38:12;4.10;;;3.80;;
40595;SDS011;26304;48.794;9.820;2022-09-24T10:44:00;3.38;;;3.13;;
40595;SDS011;26304;48.794;9.820;2022-09-24T10:49:49;3.67;;;3.13;;
40595;SDS011;26304;48.794;9.820;2022-09-24T10:55:40;3.67;;;3.38;;
40595;SDS011;26304;48.794;9.820;2022-09-24T11:01:37;3.72;;;3.42;;
40595;SDS011;26304;48.794;9.820;2022-09-24T11:13:43;3.28;;;3.08;;
40595;SDS011;26304;48.794;9.820;2022-09-24T11:19:48;2.60;;;2.45;;
40595;SDS011;26304;48.794;9.820;2022-09-24T11:25:48;3.45;;;3.17;;
40595;SDS011;26304;48.794;9.820;2022-09-24T11:31:37;2.80;;;2.60;;
40595;SDS011;26304;48.794;9.820;2022-09-24T11:37:31;3.30;;;3.10;;
40595;SDS011;26304;48.794;9.820;2022-09-24T11:43:31;3.20;;;3.00;;
40595;SDS011;26304;48.794;9.820;2022-09-24T11:49:32;2.85;;;2.65;;
40595;SDS011;26304;48.794;9.820;2022-09-24T11:55:29;3.22;;;2.70;;
40595;SDS011;26304;48.794;9.820;2022-09-24T12:01:19;2.92;;;2.72;;
40595;SDS011;26304;48.794;9.820;2022-09-24T12:07:05;2.70;;;2.50;;
40595;SDS011;26304;48.794;9.820;2022-09-24T12:12:56;2.60;;;2.40;;
40595;SDS011;26304;48.794;9.820;2022-09-24T12:18:45;5.03;;;2.72;;
40595;SDS011;26304;48.794;9.820;2022-09-24T12:24:34;2.92;;;2.60;;
40595;SDS011;26304;48.794;9.820;2022-09-24T12:30:26;2.95;;;2.75;;
40595;SDS011;26304;48.794;9.820;2022-09-24T12:36:40;3.05;;;2.80;;
40595;SDS011;26304;48.794;9.820;2022-09-24T12:42:35;2.97;;;2.70;;
40595;SDS011;26304;48.794;9.820;2022-09-24T12:48:25;3.05;;;2.75;;
40595;SDS011;26304;48.794;9.820;2022-09-24T12:54:19;2.80;;;2.60;;
40595;SDS011;26304;48.794;9.820;2022-09-24T13:06:21;3.88;;;2.50;;
40595;SDS011;26304;48.794;9.820;2022-09-24T13:12:21;3.22;;;2.45;;
40595;SDS011;26304;48.794;9.820;2022-09-24T13:18:18;3.85;;;3.10;;
40595;SDS011;26304;48.794;9.820;2022-09-24T13:24:10;5.65;;;2.75;;
40595;SDS011;26304;48.794;9.820;2022-09-24T13:29:59;3.53;;;2.67;;
40595;SDS011;26304;48.794;9.820;2022-09-24T13:35:46;2.85;;;2.65;;
40595;SDS011;26304;48.794;9.820;2022-09-24T13:41:46;3.22;;;2.90;;
40595;SDS011;26304;48.794;9.820;2022-09-24T13:47:34;3.83;;;2.58;;
40595;SDS011;26304;48.794;9.820;2022-09-24T13:53:23;3.15;;;2.85;;
40595;SDS011;26304;48.794;9.820;2022-09-24T13:59:12;3.45;;;2.50;;
40595;SDS011;26304;48.794;9.820;2022-09-24T14:04:55;3.17;;;2.83;;
40595;SDS011;26304;48.794;9.820;2022-09-24T14:10:39;2.70;;;2.40;;
40595;SDS011;26304;48.794;9.820;2022-09-24T14:16:24;2.83;;;2.63;;
40595;SDS011;26304;48.794;9.820;2022-09-24T14:22:09;3.85;;;2.70;;
40595;SDS011;26304;48.794;9.820;2022-09-24T14:27:56;2.63;;;2.42;;
40595;SDS011;26304;48.794;9.820;2022-09-24T14:33:42;2.58;;;2.38;;
40595;SDS011;26304;48.794;9.820;2022-09-24T14:39:26;3.75;;;2.55;;
40595;SDS011;26304;48.794;9.820;2022-09-24T14:45:15;2.55;;;2.35;;
40595;SDS011;26304;48.794;9.820;2022-09-24T14:51:01;2.75;;;2.50;;
40595;SDS011;26304;48.794;9.820;2022-09-24T14:56:44;2.70;;;2.50;;
40595;SDS011;26304;48.794;9.820;2022-09-24T15:02:28;2.33;;;2.13;;
40595;SDS011;26304;48.794;9.820;2022-09-24T15:08:18;3.13;;;2.38;;
40595;SDS011;26304;48.794;9.820;2022-09-24T15:14:11;3.67;;;2.28;;
40595;SDS011;26304;48.794;9.820;2022-09-24T15:19:55;3.05;;;2.50;;
40595;SDS011;26304;48.794;9.820;2022-09-24T15:25:39;2.70;;;2.50;;
40595;SDS011;26304;48.794;9.820;2022-09-24T15:31:23;3.33;;;2.40;;
40595;SDS011;26304;48.794;9.820;2022-09-24T15:37:07;4.30;;;2.97;;
40595;SDS011;26304;48.794;9.820;2022-09-24T15:42:53;9.52;;;2.25;;
40595;SDS011;26304;48.794;9.820;2022-09-24T15:48:36;5.63;;;2.50;;
40595;SDS011;26304;48.794;9.820;2022-09-24T15:54:18;2.65;;;2.25;;
40595;SDS011;26304;48.794;9.820;2022-09-24T16:00:03;2.58;;;2.38;;
40595;SDS011;26304;48.794;9.820;2022-09-24T16:05:46;2.22;;;2.13;;
40595;SDS011;26304;48.794;9.820;2022-09-24T16:11:29;4.18;;;2.30;;
40595;SDS011;26304;48.794;9.820;2022-09-24T16:17:13;2.70;;;2.40;;
40595;SDS011;26304;48.794;9.820;2022-09-24T16:22:55;5.10;;;2.95;;
40595;SDS011;26304;48.794;9.820;2022-09-24T16:28:38;4.68;;;3.05;;
40595;SDS011;26304;48.794;9.820;2022-09-24T16:34:21;2.80;;;2.60;;
40595;SDS011;26304;48.794;9.820;2022-09-24T16:40:04;4.43;;;2.85;;
40595;SDS011;26304;48.794;9.820;2022-09-24T16:45:47;3.63;;;2.80;;
40595;SDS011;26304;48.794;9.820;2022-09-24T16:51:31;2.60;;;2.40;;
40595;SDS011;26304;48.794;9.820;2022-09-24T16:57:13;3.53;;;2.30;;
40595;SDS011;26304;48.794;9.820;2022-09-24T17:02:55;2.72;;;2.53;;
40595;SDS011;26304;48.794;9.820;2022-09-24T17:08:40;3.42;;;2.65;;
40595;SDS011;26304;48.794;9.820;2022-09-24T17:14:40;3.47;;;2.85;;
40595;SDS011;26304;48.794;9.820;2022-09-24T17:20:22;24.85;;;13.30;;
40595;SDS011;26304;48.794;9.820;2022-09-24T17:26:07;12.77;;;8.50;;
40595;SDS011;26304;48.794;9.820;2022-09-24T17:31:51;13.57;;;10.47;;
40595;SDS011;26304;48.794;9.820;2022-09-24T17:37:33;15.93;;;10.47;;
40595;SDS011;26304;48.794;9.820;2022-09-24T17:43:18;11.35;;;8.02;;
40595;SDS011;26304;48.794;9.820;2022-09-24T17:49:01;12.27;;;7.90;;
40595;SDS011;26304;48.794;9.820;2022-09-24T17:54:47;11.77;;;8.02;;
40595;SDS011;26304;48.794;9.820;2022-09-24T18:00:31;10.60;;;7.22;;
40595;SDS011;26304;48.794;9.820;2022-09-24T18:06:14;10.60;;;7.05;;
40595;SDS011;26304;48.794;9.820;2022-09-24T18:11:56;7.35;;;5.93;;
40595;SDS011;26304;48.794;9.820;2022-09-24T18:17:40;10.30;;;5.88;;
40595;SDS011;26304;48.794;9.820;2022-09-24T18:23:22;6.30;;;5.38;;
40595;SDS011;26304;48.794;9.820;2022-09-24T18:29:06;5.90;;;4.80;;
40595;SDS011;26304;48.794;9.820;2022-09-24T18:34:54;5.47;;;4.97;;
40595;SDS011;26304;48.794;9.820;2022-09-24T18:40:36;6.43;;;5.82;;
40595;SDS011;26304;48.794;9.820;2022-09-24T18:46:20;5.80;;;5.30;;
40595;SDS011;26304;48.794;9.820;2022-09-24T18:52:05;5.57;;;5.18;;
40595;SDS011;26304;48.794;9.820;2022-09-24T18:57:48;5.53;;;4.53;;
40595;SDS011;26304;48.794;9.820;2022-09-24T19:03:30;5.20;;;4.80;;
40595;SDS011;26304;48.794;9.820;2022-09-24T19:09:14;5.18;;;4.63;;
40595;SDS011;26304;48.794;9.820;2022-09-24T19:14:58;11.18;;;4.43;;
40595;SDS011;26304;48.794;9.820;2022-09-24T19:20:40;5.75;;;4.80;;
40595;SDS011;26304;48.794;9.820;2022-09-24T19:26:27;5.80;;;4.53;;
40595;SDS011;26304;48.794;9.820;2022-09-24T19:32:12;4.90;;;4.40;;
40595;SDS011;26304;48.794;9.820;2022-09-24T19:37:54;5.47;;;4.60;;
40595;SDS011;26304;48.794;9.820;2022-09-24T19:43:38;6.22;;;4.53;;
40595;SDS011;26304;48.794;9.820;2022-09-24T19:49:22;5.28;;;4.78;;
40595;SDS011;26304;48.794;9.820;2022-09-24T19:55:05;5.00;;;4.50;;
40595;SDS011;26304;48.794;9.820;2022-09-24T20:00:49;6.72;;;4.78;;
40595;SDS011;26304;48.794;9.820;2022-09-24T20:06:32;5.78;;;4.40;;
40595;SDS011;26304;48.794;9.820;2022-09-24T20:12:15;6.00;;;4.40;;
40595;SDS011;26304;48.794;9.820;2022-09-24T20:18:00;5.15;;;4.65;;
40595;SDS011;26304;48.794;9.820;2022-09-24T20:23:43;5.25;;;4.75;;
40595;SDS011;26304;48.794;9.820;2022-09-24T20:29:26;4.53;;;4.13;;
40595;SDS011;26304;48.794;9.820;2022-09-24T20:35:10;5.15;;;4.40;;
40595;SDS011;26304;48.794;9.820;2022-09-24T20:40:52;5.60;;;4.57;;
40595;SDS011;26304;48.794;9.820;2022-09-24T20:46:35;5.97;;;4.85;;
40595;SDS011;26304;48.794;9.820;2022-09-24T20:52:20;8.23;;;7.53;;
40595;SDS011;26304;48.794;9.820;2022-09-24T20:58:02;8.43;;;7.82;;
40595;SDS011;26304;48.794;9.820;2022-09-24T21:03:45;9.25;;;8.25;;
40595;SDS011;26304;48.794;9.820;2022-09-24T21:09:30;9.55;;;8.73;;
40595;SDS011;26304;48.794;9.820;2022-09-24T21:15:12;8.20;;;7.60;;
40595;SDS011;26304;48.794;9.820;2022-09-24T21:20:55;7.35;;;6.75;;
40595;SDS011;26304;48.794;9.820;2022-09-24T21:26:39;7.80;;;7.20;;
40595;SDS011;26304;48.794;9.820;2022-09-24T21:32:22;6.95;;;6.45;;
40595;SDS011;26304;48.794;9.820;2022-09-24T21:38:04;6.80;;;6.30;;
40595;SDS011;26304;48.794;9.820;2022-09-24T21:43:48;7.03;;;6.53;;
40595;SDS011;26304;48.794;9.820;2022-09-24T21:49:30;7.05;;;6.55;;
40595;SDS011;26304;48.794;9.820;2022-09-24T21:55:16;6.05;;;5.55;;
40595;SDS011;26304;48.794;9.820;2022-09-24T22:00:59;6.10;;;5.45;;
40595;SDS011;26304;48.794;9.820;2022-09-24T22:06:42;6.60;;;6.00;;
40595;SDS011;26304;48.794;9.820;2022-09-24T22:12:24;5.78;;;5.28;;
40595;SDS011;26304;48.794;9.820;2022-09-24T22:18:08;5.75;;;5.20;;
40595;SDS011;26304;48.794;9.820;2022-09-24T22:23:51;5.68;;;5.28;;
40595;SDS011;26304;48.794;9.820;2022-09-24T22:29:35;7.18;;;6.60;;
40595;SDS011;26304;48.794;9.820;2022-09-24T22:35:19;8.80;;;8.00;;
40595;SDS011;26304;48.794;9.820;2022-09-24T22:41:19;9.00;;;8.18;;
40595;SDS011;26304;48.794;9.820;2022-09-24T22:47:01;8.60;;;7.90;;
40595;SDS011;26304;48.794;9.820;2022-09-24T22:52:45;8.02;;;7.28;;
40595;SDS011;26304;48.794;9.820;2022-09-24T22:58:28;7.18;;;6.57;;
40595;SDS011;26304;48.794;9.820;2022-09-24T23:04:10;6.55;;;6.05;;
40595;SDS011;26304;48.794;9.820;2022-09-24T23:09:56;7.10;;;6.40;;
40595;SDS011;26304;48.794;9.820;2022-09-24T23:15:38;6.38;;;5.85;;
40595;SDS011;26304;48.794;9.820;2022-09-24T23:21:21;6.13;;;5.70;;
40595;SDS011;26304;48.794;9.820;2022-09-24T23:27:06;5.68;;;5.28;;
40595;SDS011;26304;48.794;9.820;2022-09-24T23:32:49;5.88;;;5.47;;
40595;SDS011;26304;48.794;9.820;2022-09-24T23:38:31;5.70;;;5.30;;
40595;SDS011;26304;48.794;9.820;2022-09-24T23:44:16;5.40;;;5.00;;
40595;SDS011;26304;48.794;9.820;2022-09-24T23:49:59;5.20;;;4.70;;
40595;SDS011;26304;48.794;9.820;2022-09-24T23:55:43;5.68;;;5.18;;
